Time;durP1;ratioP1;P1;durP2;ratioP2;P2;SDS_P1;SDS_P2;PMS_P1;PMS_P2;Temp;Humidity;BMP_temperature;BMP_pressure;BME280_temperature;BME280_humidity;BME280_pressure;Samples;Min_cycle;Max_cycle;Signal;HPM_P1;HPM_P2
2023/07/05 04:03:13;;;;;;;9.70;6.63;;;17.10;94.50;;;;;;4926274;29;20487;-66
2023/07/05 04:05:39;;;;;;;8.10;5.27;;;17.10;94.10;;;;;;4930356;29;20439;-66
2023/07/05 04:08:04;;;;;;;17.80;6.10;;;17.20;94.20;;;;;;4927443;29;20451;-68
2023/07/05 04:10:30;;;;;;;7.67;4.30;;;17.20;94.10;;;;;;4929129;29;20459;-68
2023/07/05 04:12:56;;;;;;;24.93;5.53;;;17.20;93.90;;;;;;4938739;29;20564;-68
2023/07/05 04:15:21;;;;;;;3.53;3.23;;;17.20;93.90;;;;;;4936373;29;20712;-68
2023/07/05 04:17:47;;;;;;;4.57;3.20;;;17.30;94.00;;;;;;4939981;29;20194;-68
2023/07/05 04:20:12;;;;;;;7.13;5.20;;;17.30;93.70;;;;;;4931428;29;20194;-68
2023/07/05 04:22:40;;;;;;;12.50;5.03;;;17.30;93.70;;;;;;4934829;29;20511;-68
2023/07/05 04:25:07;;;;;;;13.33;4.77;;;17.40;93.60;;;;;;4936162;28;20325;-68
2023/07/05 04:27:33;;;;;;;8.90;5.60;;;17.40;93.60;;;;;;4930873;29;20862;-68
2023/07/05 04:29:58;;;;;;;6.63;5.23;;;17.40;93.60;;;;;;4936361;29;20430;-68
2023/07/05 04:32:24;;;;;;;6.60;4.63;;;17.40;93.80;;;;;;4942660;29;20213;-68
2023/07/05 04:34:49;;;;;;;10.00;5.20;;;17.40;93.60;;;;;;4941234;28;20214;-68
2023/07/05 04:37:15;;;;;;;10.73;4.80;;;17.50;94.10;;;;;;4932007;29;20188;-68
2023/07/05 04:39:40;;;;;;;10.23;5.43;;;17.50;93.70;;;;;;4932029;29;20732;-68
2023/07/05 04:42:06;;;;;;;14.70;6.23;;;17.50;93.70;;;;;;4935836;28;20207;-68
2023/07/05 04:44:31;;;;;;;5.57;3.53;;;17.50;93.60;;;;;;4940354;29;20231;-68
2023/07/05 04:46:57;;;;;;;7.73;5.17;;;17.50;93.90;;;;;;4933024;29;20192;-68
2023/07/05 04:49:23;;;;;;;8.47;4.73;;;17.60;93.90;;;;;;4945490;29;20179;-68
2023/07/05 04:51:48;;;;;;;10.77;5.53;;;17.60;94.00;;;;;;4941464;28;20675;-70
2023/07/05 04:54:16;;;;;;;7.13;3.30;;;17.60;94.20;;;;;;4934053;29;20223;-68
2023/07/05 04:56:41;;;;;;;9.53;4.30;;;17.70;94.40;;;;;;4929157;29;20184;-68
2023/07/05 04:59:07;;;;;;;9.63;5.60;;;17.70;94.30;;;;;;4946963;29;20542;-68
2023/07/05 05:01:33;;;;;;;10.13;4.40;;;17.80;94.00;;;;;;4947408;29;20726;-68
2023/07/05 05:03:58;;;;;;;12.70;6.00;;;17.80;94.10;;;;;;4931170;29;20179;-68
2023/07/05 05:06:23;;;;;;;9.47;6.57;;;17.80;94.40;;;;;;4938794;29;20220;-67
2023/07/05 05:08:49;;;;;;;12.47;5.03;;;17.90;94.10;;;;;;4938826;29;20311;-68
2023/07/05 05:11:15;;;;;;;15.13;4.23;;;17.90;94.10;;;;;;4944824;29;20635;-68
2023/07/05 05:13:40;;;;;;;11.43;5.53;;;18.00;94.20;;;;;;4951293;28;20191;-68
2023/07/05 05:16:06;;;;;;;6.80;5.43;;;18.00;94.00;;;;;;4937955;29;20210;-68
2023/07/05 05:18:35;;;;;;;9.13;4.57;;;18.10;93.80;;;;;;4940397;29;20700;-70
2023/07/05 05:21:00;;;;;;;10.17;4.70;;;18.10;94.00;;;;;;4924547;29;20804;-68
2023/07/05 05:23:27;;;;;;;22.90;7.00;;;18.10;94.00;;;;;;4931671;29;20427;-68
2023/07/05 05:25:53;;;;;;;6.40;4.63;;;18.20;94.20;;;;;;4937547;29;20188;-67
2023/07/05 05:28:19;;;;;;;6.77;3.93;;;18.20;94.50;;;;;;4934253;29;20437;-66
2023/07/05 05:30:45;;;;;;;4.87;4.57;;;18.30;93.80;;;;;;4928654;29;20900;-68
2023/07/05 05:33:12;;;;;;;5.50;3.73;;;18.30;92.80;;;;;;4937887;29;20462;-66
2023/07/05 05:35:38;;;;;;;15.17;6.00;;;18.40;93.30;;;;;;4927980;28;20530;-68
2023/07/05 05:38:04;;;;;;;9.20;4.93;;;18.40;92.80;;;;;;4926532;29;20950;-68
2023/07/05 05:40:32;;;;;;;13.23;6.67;;;18.50;92.80;;;;;;4929928;29;20232;-68
2023/07/05 05:42:58;;;;;;;4.57;4.30;;;18.60;93.00;;;;;;4930167;29;20786;-68
2023/07/05 05:45:23;;;;;;;11.67;5.57;;;18.60;92.80;;;;;;4925646;29;20523;-68
2023/07/05 05:47:49;;;;;;;13.73;6.23;;;18.70;93.10;;;;;;4935229;29;20570;-68
2023/07/05 05:50:15;;;;;;;8.27;6.33;;;18.70;93.00;;;;;;4926923;29;20192;-69
2023/07/05 05:52:41;;;;;;;9.60;5.90;;;18.70;92.60;;;;;;4919975;29;20800;-68
2023/07/05 05:55:07;;;;;;;6.53;5.20;;;18.80;92.70;;;;;;4935131;29;20258;-68
2023/07/05 05:57:33;;;;;;;18.50;5.67;;;18.80;91.50;;;;;;4935191;29;20185;-67
2023/07/05 05:59:59;;;;;;;11.43;3.87;;;18.90;92.20;;;;;;4919765;29;20208;-67
2023/07/05 06:02:25;;;;;;;7.07;4.50;;;18.90;91.70;;;;;;4929181;29;20840;-67
2023/07/05 06:04:50;;;;;;;3.20;3.07;;;19.00;91.00;;;;;;4942235;29;20199;-67
2023/07/05 06:07:16;;;;;;;7.07;3.37;;;19.00;90.60;;;;;;4934350;28;20194;-67
2023/07/05 06:09:48;;;;;;;11.90;5.87;;;19.10;90.80;;;;;;4937033;29;20180;-68
2023/07/05 06:12:15;;;;;;;13.40;5.27;;;19.10;91.00;;;;;;4944425;29;20683;-67
2023/07/05 06:14:40;;;;;;;15.97;5.80;;;19.10;90.80;;;;;;4931826;29;20464;-69
2023/07/05 06:17:06;;;;;;;4.40;3.73;;;19.10;90.70;;;;;;4935216;29;20440;-67
2023/07/05 06:19:32;;;;;;;8.10;4.03;;;19.20;90.10;;;;;;4937442;28;20208;-68
2023/07/05 06:21:59;;;;;;;6.23;4.50;;;19.20;90.90;;;;;;4942630;29;20226;-68
2023/07/05 06:24:24;;;;;;;5.87;3.73;;;19.20;90.70;;;;;;4949050;28;20177;-67
2023/07/05 06:26:50;;;;;;;6.50;5.40;;;19.30;90.50;;;;;;4940084;28;20432;-67
2023/07/05 06:29:15;;;;;;;10.00;5.10;;;19.30;90.10;;;;;;4937643;29;20184;-67
2023/07/05 06:31:41;;;;;;;3.83;3.53;;;19.30;90.20;;;;;;4938806;29;20226;-67
2023/07/05 06:34:06;;;;;;;8.63;4.13;;;19.40;89.70;;;;;;4931185;29;20176;-67
2023/07/05 06:36:32;;;;;;;7.60;3.50;;;19.40;89.90;;;;;;4931632;29;20218;-68
2023/07/05 06:38:58;;;;;;;4.23;2.93;;;19.40;89.90;;;;;;4932950;29;20211;-67
2023/07/05 06:41:23;;;;;;;3.30;3.10;;;19.50;91.00;;;;;;4935686;28;20207;-67
2023/07/05 06:43:49;;;;;;;3.43;3.10;;;19.50;91.50;;;;;;4929924;29;20180;-67
2023/07/05 06:46:15;;;;;;;7.30;4.80;;;19.50;92.10;;;;;;4931788;29;20226;-67
2023/07/05 06:48:40;;;;;;;3.90;3.03;;;19.50;91.50;;;;;;4944978;29;20678;-66
2023/07/05 06:51:06;;;;;;;6.50;4.10;;;19.50;93.10;;;;;;4932532;29;20246;-67
2023/07/05 06:53:31;;;;;;;3.07;2.30;;;19.40;94.60;;;;;;4931846;29;20199;-66
2023/07/05 06:55:57;;;;;;;3.23;2.67;;;19.30;95.00;;;;;;4933737;29;20211;-66
2023/07/05 06:58:23;;;;;;;14.03;3.60;;;19.20;95.50;;;;;;4931483;29;20471;-67
2023/07/05 07:00:50;;;;;;;5.47;4.37;;;19.10;95.90;;;;;;4940308;28;20199;-68
2023/07/05 07:03:17;;;;;;;12.57;4.20;;;19.10;96.00;;;;;;4945278;29;20186;-66
2023/07/05 07:05:54;;;;;;;7.67;3.23;;;19.10;96.90;;;;;;4928549;29;20842;-67
2023/07/05 07:08:20;;;;;;;5.73;4.67;;;19.00;96.70;;;;;;4939284;28;20423;-67
2023/07/05 07:10:47;;;;;;;2.77;2.57;;;19.00;96.90;;;;;;4931591;29;20443;-68
2023/07/05 07:13:13;;;;;;;7.47;2.40;;;19.00;96.90;;;;;;4940873;29;20426;-69
2023/07/05 07:15:39;;;;;;;6.73;4.67;;;19.00;96.80;;;;;;4942073;28;20576;-66
2023/07/05 07:18:04;;;;;;;8.20;3.43;;;19.00;97.10;;;;;;4935849;29;20415;-66
2023/07/05 07:20:30;;;;;;;4.60;3.10;;;19.00;97.30;;;;;;4942926;28;20204;-67
2023/07/05 07:22:55;;;;;;;2.63;1.87;;;19.00;97.30;;;;;;4933043;29;20594;-67
2023/07/05 07:25:21;;;;;;;2.23;2.03;;;18.90;97.30;;;;;;4935364;29;20656;-67
2023/07/05 07:27:46;;;;;;;10.03;4.93;;;18.90;97.30;;;;;;4947170;29;20190;-67
2023/07/05 07:30:13;;;;;;;2.50;2.30;;;18.80;97.30;;;;;;4939820;29;20182;-66
2023/07/05 07:32:39;;;;;;;2.90;2.53;;;18.80;97.30;;;;;;4932412;29;20202;-66
2023/07/05 07:35:04;;;;;;;3.00;2.57;;;18.80;97.30;;;;;;4938286;29;20460;-66
2023/07/05 07:37:33;;;;;;;2.70;1.90;;;18.80;97.30;;;;;;4937469;29;20604;-66
2023/07/05 07:40:00;;;;;;;12.13;2.97;;;18.80;97.30;;;;;;4942757;29;20179;-67
2023/07/05 07:42:25;;;;;;;4.43;2.60;;;18.80;97.30;;;;;;4937496;29;20436;-67
2023/07/05 07:44:53;;;;;;;2.77;1.77;;;18.80;97.30;;;;;;4946693;29;20431;-66
2023/07/05 07:47:19;;;;;;;3.33;2.07;;;18.80;97.30;;;;;;4928959;29;20180;-68
2023/07/05 07:49:44;;;;;;;2.50;1.67;;;18.80;97.30;;;;;;4930893;29;20455;-69
2023/07/05 07:52:11;;;;;;;1.90;1.80;;;18.80;97.30;;;;;;4938702;29;20196;-67
2023/07/05 07:54:38;;;;;;;3.10;2.10;;;18.90;97.30;;;;;;4936616;29;20424;-74
2023/07/05 07:57:05;;;;;;;2.40;1.87;;;19.00;97.30;;;;;;4940383;29;20845;-68
2023/07/05 07:59:30;;;;;;;1.83;1.83;;;19.00;97.30;;;;;;4934367;28;20576;-67
2023/07/05 08:01:56;;;;;;;2.13;1.63;;;19.00;97.30;;;;;;4924369;29;20473;-67
2023/07/05 08:04:21;;;;;;;4.10;2.03;;;19.00;97.30;;;;;;4929700;29;20550;-67
2023/07/05 08:06:50;;;;;;;1.10;1.10;;;19.10;97.30;;;;;;4931891;29;20664;-67
2023/07/05 08:09:18;;;;;;;2.10;1.77;;;19.10;97.30;;;;;;4937592;29;20238;-67
2023/07/05 08:11:44;;;;;;;2.63;2.33;;;19.10;97.30;;;;;;4931528;28;20467;-67
2023/07/05 08:14:13;;;;;;;3.53;2.43;;;19.20;97.30;;;;;;4936168;28;20764;-68
2023/07/05 08:16:40;;;;;;;1.70;1.60;;;19.20;97.30;;;;;;4931573;29;20207;-67
2023/07/05 08:19:06;;;;;;;1.80;1.70;;;19.30;97.30;;;;;;4944251;29;20443;-68
2023/07/05 08:21:32;;;;;;;2.23;1.70;;;19.30;97.30;;;;;;4938070;28;20454;-67
2023/07/05 08:23:57;;;;;;;1.70;1.60;;;19.40;97.30;;;;;;4935073;29;20498;-68
2023/07/05 08:26:23;;;;;;;2.60;1.87;;;19.40;97.30;;;;;;4934755;29;21206;-67
2023/07/05 08:28:49;;;;;;;1.63;1.60;;;19.50;97.30;;;;;;4941150;29;20697;-68
2023/07/05 08:31:14;;;;;;;1.00;1.00;;;19.50;97.30;;;;;;4935147;29;20259;-74
2023/07/05 08:33:40;;;;;;;1.53;1.40;;;19.60;97.30;;;;;;4937084;29;20184;-68
2023/07/05 08:36:12;;;;;;;2.93;2.50;;;19.60;97.10;;;;;;4932562;29;20211;-69
2023/07/05 08:38:49;;;;;;;2.07;1.60;;;19.70;97.30;;;;;;4933779;29;20491;-68
2023/07/05 08:41:32;;;;;;;1.27;1.10;;;19.80;97.00;;;;;;4926524;29;20443;-68
2023/07/05 08:44:19;;;;;;;2.70;1.43;;;19.80;97.00;;;;;;4947025;28;20441;-69
2023/07/05 08:46:58;;;;;;;4.63;1.93;;;19.90;96.60;;;;;;4927551;29;20435;-67
2023/07/05 08:49:36;;;;;;;1.13;1.03;;;20.00;96.90;;;;;;4929808;29;20625;-68
2023/07/05 08:52:03;;;;;;;1.77;1.67;;;20.10;97.00;;;;;;4936565;29;20545;-68
2023/07/05 08:54:33;;;;;;;4.50;2.60;;;20.10;96.80;;;;;;4945389;29;20454;-67
2023/07/05 08:57:08;;;;;;;1.43;1.37;;;20.20;96.50;;;;;;4937245;29;20435;-68
2023/07/05 09:00:01;;;;;;;1.47;1.07;;;20.30;96.80;;;;;;4939742;29;20428;-70
2023/07/05 09:02:27;;;;;;;1.83;1.20;;;20.40;96.30;;;;;;4929616;29;20967;-69
2023/07/05 09:04:55;;;;;;;1.40;1.30;;;20.40;96.20;;;;;;4936586;29;20431;-69
2023/07/05 09:07:51;;;;;;;1.43;1.20;;;20.50;96.50;;;;;;4933237;29;20466;-67
2023/07/05 09:10:34;;;;;;;1.67;1.10;;;20.50;95.90;;;;;;4929501;29;20937;-68
2023/07/05 09:13:10;;;;;;;1.17;1.07;;;20.60;95.70;;;;;;4944438;29;20837;-68
2023/07/05 09:16:04;;;;;;;1.43;1.00;;;20.70;95.90;;;;;;4939685;29;21014;-68
2023/07/05 09:19:00;;;;;;;1.30;1.20;;;20.70;95.50;;;;;;4933749;29;20430;-71
2023/07/05 09:21:31;;;;;;;2.20;1.70;;;20.80;95.60;;;;;;4947471;29;20483;-69
2023/07/05 09:24:03;;;;;;;1.20;1.10;;;20.90;95.20;;;;;;4939772;29;20451;-69
2023/07/05 09:26:35;;;;;;;2.30;2.20;;;21.00;95.70;;;;;;4932327;29;20432;-68
2023/07/05 09:29:38;;;;;;;2.07;1.93;;;21.10;95.10;;;;;;4934046;29;20451;-78
2023/07/05 09:32:14;;;;;;;1.17;1.07;;;21.20;94.60;;;;;;4908205;29;20537;-67
2023/07/05 09:34:48;;;;;;;1.60;1.50;;;21.30;95.00;;;;;;4940085;29;20478;-68
2023/07/05 09:37:41;;;;;;;1.37;1.33;;;21.40;94.70;;;;;;4939229;29;20542;-68
2023/07/05 09:40:35;;;;;;;1.50;1.40;;;21.50;94.90;;;;;;4933792;29;20423;-69
2023/07/05 09:43:07;;;;;;;1.10;1.00;;;21.50;94.70;;;;;;4941933;29;20832;-69
2023/07/05 09:45:33;;;;;;;1.10;1.00;;;21.60;93.90;;;;;;4938080;28;20432;-69
2023/07/05 09:48:05;;;;;;;3.30;2.63;;;21.70;93.90;;;;;;4940581;29;20431;-69
2023/07/05 09:50:31;;;;;;;1.00;0.90;;;21.70;94.40;;;;;;4929760;29;20204;-69
2023/07/05 09:53:55;;;;;;;1.83;1.07;;;21.80;94.10;;;;;;4938991;29;20507;-71
2023/07/05 09:56:32;;;;;;;1.17;1.10;;;21.90;93.50;;;;;;4933031;29;20475;-74
2023/07/05 09:59:08;;;;;;;2.57;1.30;;;22.00;93.80;;;;;;4919014;29;20832;-68
2023/07/05 10:01:36;;;;;;;0.77;0.73;;;22.10;93.90;;;;;;4933274;29;20471;-79
2023/07/05 10:04:04;;;;;;;2.30;1.30;;;22.20;92.70;;;;;;4932255;29;20701;-79
2023/07/05 10:06:31;;;;;;;1.37;1.10;;;22.30;91.70;;;;;;4944198;28;20434;-71
2023/07/05 10:09:04;;;;;;;2.60;1.00;;;22.40;91.00;;;;;;4946056;29;20469;-71
2023/07/05 10:11:33;;;;;;;1.50;1.40;;;22.40;91.10;;;;;;4936488;28;20436;-70
2023/07/05 10:14:15;;;;;;;1.83;1.50;;;22.50;90.60;;;;;;4929739;29;20423;-74
2023/07/05 10:16:51;;;;;;;1.27;1.20;;;22.60;90.50;;;;;;4989491;23;20554;-92
2023/07/05 10:19:29;;;;;;;1.00;1.00;;;22.60;90.70;;;;;;4949638;29;20418;-88
2023/07/05 10:22:12;;;;;;;1.63;1.50;;;22.60;90.60;;;;;;4952096;29;20434;-92
2023/07/05 10:24:46;;;;;;;1.10;1.10;;;22.60;90.00;;;;;;4954909;28;20410;-87
2023/07/05 10:27:23;;;;;;;1.17;1.00;;;22.60;90.70;;;;;;4953775;29;20457;-89
2023/07/05 10:29:57;;;;;;;3.17;1.30;;;22.70;90.50;;;;;;4966549;23;20524;-68
2023/07/05 10:32:23;;;;;;;2.23;2.10;;;22.80;90.40;;;;;;4947243;28;20541;-75
2023/07/05 10:34:50;;;;;;;1.73;1.63;;;22.90;90.30;;;;;;4952596;28;20505;-74
2023/07/05 10:37:37;;;;;;;0.70;0.70;;;23.00;90.50;;;;;;4940906;28;20187;-72
2023/07/05 10:40:05;;;;;;;5.53;1.27;;;23.10;90.00;;;;;;4947530;28;20419;-73
2023/07/05 10:42:32;;;;;;;1.37;1.27;;;23.10;89.80;;;;;;4948811;28;20897;-72
2023/07/05 10:45:00;;;;;;;1.10;1.00;;;23.20;89.70;;;;;;4949530;28;20419;-69
2023/07/05 10:47:27;;;;;;;5.03;1.73;;;23.20;89.10;;;;;;4939232;28;20430;-71
2023/07/05 10:49:58;;;;;;;10.13;1.87;;;23.10;89.60;;;;;;4946173;28;20443;-71
2023/07/05 10:52:25;;;;;;;2.80;1.40;;;23.00;89.80;;;;;;4945430;28;20439;-74
2023/07/05 10:55:04;;;;;;;2.30;1.37;;;23.00;89.60;;;;;;4943373;29;20459;-69
2023/07/05 10:57:40;;;;;;;1.57;1.53;;;22.90;88.80;;;;;;4942788;29;20480;-70
2023/07/05 11:00:24;;;;;;;1.30;1.20;;;22.90;89.20;;;;;;4940316;28;20443;-71
2023/07/05 11:02:56;;;;;;;1.27;1.20;;;22.90;89.90;;;;;;4950149;28;20422;-72
2023/07/05 11:05:45;;;;;;;1.07;0.97;;;22.90;89.40;;;;;;4937199;29;20471;-71
2023/07/05 11:08:20;;;;;;;1.30;1.30;;;23.10;90.30;;;;;;4947383;28;20477;-71
2023/07/05 11:10:48;;;;;;;3.53;1.20;;;23.20;89.20;;;;;;4952393;28;20452;-68
2023/07/05 11:13:17;;;;;;;2.70;0.83;;;23.30;89.20;;;;;;4948874;28;20431;-70
2023/07/05 11:15:45;;;;;;;3.33;1.73;;;23.30;89.00;;;;;;4941952;28;20517;-71
2023/07/05 11:18:22;;;;;;;1.57;1.07;;;23.30;89.30;;;;;;4949572;28;20439;-70
2023/07/05 11:20:54;;;;;;;1.80;1.70;;;23.30;88.30;;;;;;4952249;28;20475;-69
2023/07/05 11:23:42;;;;;;;1.47;1.43;;;23.20;88.20;;;;;;4944816;29;20955;-70
2023/07/05 11:26:32;;;;;;;2.20;1.80;;;23.20;88.30;;;;;;4948015;28;20475;-77
2023/07/05 11:28:58;;;;;;;2.57;1.53;;;23.20;88.10;;;;;;4948063;28;20821;-71
2023/07/05 11:31:27;;;;;;;1.40;1.30;;;23.30;88.10;;;;;;4949872;28;20511;-69
2023/07/05 11:34:20;;;;;;;4.97;1.83;;;23.30;88.50;;;;;;4948305;28;20427;-68
2023/07/05 11:36:48;;;;;;;1.23;1.13;;;23.30;88.50;;;;;;4940949;28;20506;-72
2023/07/05 11:39:33;;;;;;;6.10;1.50;;;23.40;87.70;;;;;;4949487;29;20423;-68
2023/07/05 11:42:19;;;;;;;1.47;1.37;;;23.40;87.30;;;;;;4947351;28;20529;-71
2023/07/05 11:44:46;;;;;;;1.47;1.47;;;23.40;85.50;;;;;;4952919;28;20474;-70
2023/07/05 11:47:23;;;;;;;1.27;1.20;;;23.30;85.90;;;;;;4949445;28;20698;-69
2023/07/05 11:50:08;;;;;;;4.60;1.80;;;23.30;85.60;;;;;;4948558;28;20511;-67
2023/07/05 11:52:45;;;;;;;1.20;1.20;;;23.30;85.60;;;;;;4959466;28;20954;-67
2023/07/05 11:55:19;;;;;;;1.00;1.00;;;23.30;86.60;;;;;;4950222;28;20524;-69
2023/07/05 11:57:49;;;;;;;1.47;1.37;;;23.40;86.70;;;;;;4954313;28;20418;-70
2023/07/05 12:00:30;;;;;;;1.10;1.10;;;23.40;86.30;;;;;;4951634;28;20493;-67
2023/07/05 12:03:04;;;;;;;1.30;1.20;;;23.40;87.40;;;;;;4951377;28;20433;-71
2023/07/05 12:05:32;;;;;;;6.73;1.27;;;23.40;86.10;;;;;;4951409;28;20738;-68
2023/07/05 12:08:11;;;;;;;1.70;1.00;;;23.40;86.40;;;;;;4952738;28;20418;-67
2023/07/05 12:10:36;;;;;;;9.73;1.83;;;23.40;87.00;;;;;;4951559;28;21016;-68
2023/07/05 12:13:08;;;;;;;1.70;1.60;;;23.40;87.00;;;;;;4950810;28;20426;-71
2023/07/05 12:15:36;;;;;;;1.23;1.20;;;23.40;87.20;;;;;;4953109;28;20206;-71
2023/07/05 12:18:03;;;;;;;1.87;1.30;;;23.40;84.70;;;;;;4951194;28;20935;-68
2023/07/05 12:20:30;;;;;;;2.17;1.37;;;23.40;81.70;;;;;;4950664;28;20517;-69
2023/07/05 12:22:58;;;;;;;1.53;1.20;;;23.60;82.30;;;;;;4951263;28;20844;-69
2023/07/05 12:25:24;;;;;;;2.43;1.53;;;23.90;81.70;;;;;;4952995;28;20841;-68
2023/07/05 12:27:51;;;;;;;2.60;1.97;;;24.20;80.10;;;;;;4946840;28;20431;-69
2023/07/05 12:30:21;;;;;;;4.93;3.07;;;24.30;80.20;;;;;;4949413;28;20829;-69
2023/07/05 12:32:55;;;;;;;2.40;2.20;;;24.40;79.50;;;;;;4950785;28;20428;-68
2023/07/05 12:35:26;;;;;;;1.10;1.00;;;24.70;80.00;;;;;;4951312;28;20481;-69
2023/07/05 12:37:54;;;;;;;2.73;1.83;;;24.90;79.80;;;;;;4951639;29;20419;-72
2023/07/05 12:40:34;;;;;;;3.67;1.47;;;25.20;77.90;;;;;;4952982;29;20442;-78
2023/07/05 12:43:05;;;;;;;2.57;1.77;;;25.30;78.20;;;;;;4941560;28;20859;-73
2023/07/05 12:45:32;;;;;;;3.43;1.77;;;25.30;77.70;;;;;;4950387;28;20426;-72
2023/07/05 12:48:12;;;;;;;8.57;1.50;;;25.20;78.10;;;;;;4950995;28;20438;-78
2023/07/05 12:50:37;;;;;;;2.23;1.90;;;25.20;78.20;;;;;;4952469;28;20481;-74
2023/07/05 12:53:11;;;;;;;3.30;1.57;;;25.20;78.20;;;;;;4952525;28;20835;-71
2023/07/05 12:55:39;;;;;;;2.40;2.03;;;25.20;76.90;;;;;;4950896;29;20241;-71
2023/07/05 12:58:06;;;;;;;1.60;1.40;;;25.00;75.70;;;;;;4950656;29;20434;-71
2023/07/05 13:00:34;;;;;;;2.33;1.70;;;24.90;76.30;;;;;;4950637;28;20457;-72
2023/07/05 13:03:03;;;;;;;1.90;1.80;;;25.00;75.40;;;;;;4949777;28;20430;-72
2023/07/05 13:05:29;;;;;;;1.83;1.73;;;25.20;76.10;;;;;;4950206;28;20465;-72
2023/07/05 13:08:00;;;;;;;2.10;1.40;;;25.30;72.60;;;;;;4950853;29;20705;-73
2023/07/05 13:10:26;;;;;;;6.00;2.33;;;25.40;71.00;;;;;;4943387;28;20474;-71
2023/07/05 13:12:58;;;;;;;4.03;1.80;;;25.50;71.40;;;;;;4953625;28;20871;-77
2023/07/05 13:15:37;;;;;;;2.10;1.30;;;25.60;70.20;;;;;;4943407;28;20775;-72
2023/07/05 13:18:28;;;;;;;1.97;1.87;;;25.70;70.10;;;;;;4950289;28;20423;-70
2023/07/05 13:21:36;;;;;;;3.00;1.60;;;25.70;69.70;;;;;;4950179;28;20451;-72
2023/07/05 13:24:02;;;;;;;1.53;1.30;;;25.80;70.50;;;;;;4936930;28;20993;-72
2023/07/05 13:26:30;;;;;;;2.03;1.60;;;25.90;68.50;;;;;;4952056;28;20413;-68
2023/07/05 13:29:00;;;;;;;1.77;1.57;;;26.00;68.00;;;;;;4950502;28;20782;-70
2023/07/05 13:31:27;;;;;;;2.70;1.27;;;26.00;68.30;;;;;;4949933;28;20451;-71
2023/07/05 13:33:54;;;;;;;1.87;1.50;;;26.10;68.70;;;;;;4949855;28;20427;-71
2023/07/05 13:36:21;;;;;;;2.47;1.70;;;26.10;68.10;;;;;;4949929;28;21048;-73
2023/07/05 13:38:47;;;;;;;2.80;2.33;;;26.10;68.40;;;;;;4950894;28;20423;-71
2023/07/05 13:41:21;;;;;;;4.10;2.13;;;26.00;69.00;;;;;;4955177;28;20482;-72
2023/07/05 13:43:47;;;;;;;1.63;1.20;;;26.10;68.80;;;;;;4950222;28;20636;-69
2023/07/05 13:46:12;;;;;;;2.30;1.33;;;26.10;68.40;;;;;;4950575;28;20442;-66
2023/07/05 13:48:39;;;;;;;1.47;1.33;;;26.10;68.30;;;;;;4951132;28;20857;-76
2023/07/05 13:51:05;;;;;;;2.37;1.10;;;26.20;69.30;;;;;;4952833;28;20203;-79
2023/07/05 13:53:32;;;;;;;6.50;1.50;;;26.30;68.10;;;;;;4950191;28;20819;-72
2023/07/05 13:55:59;;;;;;;5.33;1.93;;;26.20;68.00;;;;;;4948766;28;20462;-70
2023/07/05 13:58:25;;;;;;;1.40;1.30;;;26.20;68.30;;;;;;4942578;29;20513;-75
2023/07/05 14:00:51;;;;;;;2.30;1.50;;;26.20;68.50;;;;;;4950372;28;20594;-74
2023/07/05 14:03:17;;;;;;;1.17;1.07;;;26.30;68.70;;;;;;4961484;28;20218;-73
2023/07/05 14:05:43;;;;;;;3.10;1.70;;;26.30;68.10;;;;;;4951639;28;20367;-74
2023/07/05 14:08:14;;;;;;;2.00;1.53;;;26.40;68.50;;;;;;4949425;28;20800;-74
2023/07/05 14:10:44;;;;;;;3.10;1.93;;;26.40;67.70;;;;;;4951037;28;20734;-69
2023/07/05 14:13:15;;;;;;;2.90;1.60;;;26.40;67.50;;;;;;4951280;28;20434;-81
2023/07/05 14:15:42;;;;;;;1.43;1.23;;;26.30;67.20;;;;;;4951223;28;20625;-70
2023/07/05 14:18:14;;;;;;;1.33;1.23;;;26.10;67.60;;;;;;4942761;29;20514;-73
2023/07/05 14:20:41;;;;;;;1.50;1.40;;;26.00;67.40;;;;;;4944984;28;20470;-74
2023/07/05 14:23:12;;;;;;;1.60;1.50;;;25.90;68.00;;;;;;4946639;28;20507;-71
2023/07/05 14:25:45;;;;;;;3.20;2.03;;;25.90;67.70;;;;;;4948110;28;20703;-73
2023/07/05 14:28:11;;;;;;;2.40;1.90;;;26.10;68.20;;;;;;4959048;28;20520;-71
2023/07/05 14:30:36;;;;;;;2.37;1.60;;;26.10;67.00;;;;;;4950397;28;20470;-73
2023/07/05 14:33:04;;;;;;;1.37;1.13;;;26.10;67.50;;;;;;4947243;28;20424;-69
2023/07/05 14:35:29;;;;;;;3.43;1.40;;;26.30;67.30;;;;;;4949284;29;20206;-68
2023/07/05 14:37:55;;;;;;;4.53;1.33;;;26.20;66.50;;;;;;4947029;28;20420;-75
2023/07/05 14:40:26;;;;;;;1.87;1.53;;;26.10;66.50;;;;;;4949252;28;20183;-69
2023/07/05 14:42:52;;;;;;;1.50;1.20;;;25.90;66.30;;;;;;4950183;28;20183;-70
2023/07/05 14:45:34;;;;;;;2.03;1.77;;;25.80;66.10;;;;;;4948616;28;20438;-70
2023/07/05 14:48:01;;;;;;;2.63;1.30;;;25.50;66.30;;;;;;4944906;28;20502;-66
2023/07/05 14:50:31;;;;;;;1.77;1.10;;;25.40;67.60;;;;;;4944720;28;20434;-74
2023/07/05 14:52:58;;;;;;;1.27;1.17;;;25.60;66.90;;;;;;4948249;28;20880;-72
2023/07/05 14:55:26;;;;;;;2.20;1.27;;;25.60;66.80;;;;;;4946682;28;20985;-71
2023/07/05 14:57:52;;;;;;;6.83;1.57;;;25.50;66.30;;;;;;4948361;28;20446;-70
2023/07/05 15:00:20;;;;;;;1.33;1.23;;;25.50;67.10;;;;;;4941905;28;20425;-71
2023/07/05 15:02:48;;;;;;;4.03;1.70;;;25.50;66.60;;;;;;4934920;28;20608;-72
2023/07/05 15:05:15;;;;;;;2.23;2.03;;;25.50;66.90;;;;;;4941845;29;21190;-77
2023/07/05 15:07:41;;;;;;;6.53;2.20;;;25.60;66.50;;;;;;4949402;28;20442;-72
2023/07/05 15:10:07;;;;;;;2.40;1.67;;;25.70;67.10;;;;;;4950506;28;20430;-72
2023/07/05 15:12:40;;;;;;;2.80;1.80;;;25.80;67.50;;;;;;4943916;28;20199;-69
2023/07/05 15:15:16;;;;;;;2.13;1.97;;;25.90;66.70;;;;;;4951091;28;20509;-69
2023/07/05 15:17:42;;;;;;;1.40;1.30;;;26.00;67.10;;;;;;4948547;28;20430;-66
2023/07/05 15:20:12;;;;;;;1.83;1.77;;;26.20;65.80;;;;;;4950680;28;20418;-66
2023/07/05 15:22:37;;;;;;;1.53;1.27;;;26.20;65.20;;;;;;4948030;28;20171;-68
2023/07/05 15:25:04;;;;;;;2.40;1.77;;;26.30;65.00;;;;;;4949934;28;21014;-68
2023/07/05 15:27:30;;;;;;;2.70;1.30;;;26.20;64.60;;;;;;4955069;28;20202;-68
2023/07/05 15:29:57;;;;;;;3.57;1.30;;;26.10;64.00;;;;;;4954645;28;20470;-69
2023/07/05 15:32:24;;;;;;;4.73;1.20;;;26.10;63.30;;;;;;4937050;28;20342;-71
2023/07/05 15:34:49;;;;;;;5.40;1.70;;;26.10;63.30;;;;;;4953466;28;20450;-70
2023/07/05 15:37:15;;;;;;;1.10;1.00;;;26.10;64.50;;;;;;4953599;28;20435;-69
2023/07/05 15:39:40;;;;;;;2.03;1.80;;;26.10;63.70;;;;;;4954980;28;20194;-71
2023/07/05 15:42:06;;;;;;;1.33;1.23;;;26.00;63.80;;;;;;4947937;28;20665;-71
2023/07/05 15:44:31;;;;;;;1.00;0.90;;;26.00;64.20;;;;;;4951657;28;20171;-74
2023/07/05 15:46:57;;;;;;;5.70;1.93;;;26.00;63.90;;;;;;4950677;29;20175;-70
2023/07/05 15:49:22;;;;;;;1.30;1.20;;;25.90;64.20;;;;;;4953417;28;20964;-67
2023/07/05 15:51:48;;;;;;;1.90;1.40;;;25.90;64.20;;;;;;4955270;28;20203;-76
2023/07/05 15:54:15;;;;;;;5.80;1.40;;;25.80;64.70;;;;;;4950808;28;20249;-73
2023/07/05 15:56:40;;;;;;;1.60;1.07;;;25.90;65.40;;;;;;4951973;29;20210;-71
2023/07/05 15:59:12;;;;;;;3.83;1.33;;;25.90;65.20;;;;;;4955205;28;20426;-69
2023/07/05 16:01:41;;;;;;;2.23;1.67;;;25.90;64.70;;;;;;4949086;28;20215;-71
2023/07/05 16:04:07;;;;;;;1.60;1.50;;;25.90;65.20;;;;;;4953687;28;20422;-71
2023/07/05 16:06:32;;;;;;;1.40;1.30;;;25.90;65.50;;;;;;4951798;28;20437;-77
2023/07/05 16:08:58;;;;;;;1.90;1.33;;;25.80;64.80;;;;;;4950287;28;20274;-71
2023/07/05 16:11:25;;;;;;;1.87;1.20;;;25.70;65.40;;;;;;4951301;28;20226;-71
2023/07/05 16:13:50;;;;;;;1.03;0.93;;;25.40;64.70;;;;;;4951831;28;20186;-73
2023/07/05 16:16:16;;;;;;;1.40;1.30;;;25.00;65.40;;;;;;4950970;29;20466;-69
2023/07/05 16:18:42;;;;;;;1.50;1.30;;;25.00;66.40;;;;;;4985594;23;20249;-82
2023/07/05 16:21:09;;;;;;;1.60;1.07;;;25.10;66.10;;;;;;4978598;28;20297;-86
2023/07/05 16:23:34;;;;;;;1.20;1.10;;;25.40;66.50;;;;;;4964161;28;20437;-74
2023/07/05 16:26:00;;;;;;;2.13;1.50;;;25.60;65.70;;;;;;4967547;28;20422;-84
2023/07/05 16:28:26;;;;;;;1.50;1.20;;;25.70;65.30;;;;;;4964310;28;20191;-84
2023/07/05 16:30:52;;;;;;;5.00;1.53;;;25.60;65.10;;;;;;4969261;28;20444;-73
2023/07/05 16:33:18;;;;;;;1.70;1.60;;;25.70;65.10;;;;;;4964842;28;20260;-78
2023/07/05 16:35:54;;;;;;;1.53;1.40;;;25.70;65.70;;;;;;4971061;28;20469;-69
2023/07/05 16:38:19;;;;;;;2.77;0.97;;;25.60;65.70;;;;;;4959477;28;20248;-75
2023/07/05 16:40:46;;;;;;;2.60;2.20;;;25.70;65.10;;;;;;4968960;28;20942;-76
2023/07/05 16:43:14;;;;;;;3.07;1.63;;;25.70;66.00;;;;;;4971391;28;20638;-83
2023/07/05 16:45:42;;;;;;;1.67;1.30;;;25.60;64.70;;;;;;4966286;28;20436;-76
2023/07/05 16:48:08;;;;;;;2.70;1.20;;;25.50;64.60;;;;;;4970924;28;20647;-76
2023/07/05 16:50:34;;;;;;;3.67;1.60;;;25.40;64.80;;;;;;4969971;28;20457;-75
2023/07/05 16:53:02;;;;;;;2.10;1.63;;;25.40;65.30;;;;;;4964821;28;20187;-73
2023/07/05 16:55:28;;;;;;;1.53;1.50;;;25.30;65.00;;;;;;4968494;28;20466;-75
2023/07/05 16:57:53;;;;;;;1.60;1.20;;;25.20;65.10;;;;;;4964826;28;20884;-75
2023/07/05 17:00:19;;;;;;;1.67;1.10;;;25.10;64.80;;;;;;4964785;28;20268;-72